Time;durP1;ratioP1;P1;durP2;ratioP2;P2;SDS_P1;SDS_P2;PMS_P1;PMS_P2;Temp;Humidity;BMP_temperature;BMP_pressure;BME280_temperature;BME280_humidity;BME280_pressure;Samples;Min_cycle;Max_cycle;Signal;HPM_P1;HPM_P2
2021/12/04 00:01:46;;;;;;;0.82;0.82;;;5.10;54.10;;;;;;5130846;27;34244;-75
2021/12/04 00:04:13;;;;;;;1.27;1.17;;;5.10;54.00;;;;;;5112520;27;34116;-75
2021/12/04 00:06:40;;;;;;;1.15;1.05;;;5.10;54.10;;;;;;5111743;27;35597;-75
2021/12/04 00:09:07;;;;;;;2.28;1.10;;;5.10;54.10;;;;;;5095223;27;34273;-75
2021/12/04 00:11:37;;;;;;;1.17;1.10;;;5.10;54.00;;;;;;5094879;27;34187;-75
2021/12/04 00:14:03;;;;;;;0.82;0.82;;;5.10;54.00;;;;;;5112715;27;34208;-75
2021/12/04 00:16:29;;;;;;;1.52;1.20;;;5.10;54.00;;;;;;5111885;27;35832;-76
2021/12/04 00:18:55;;;;;;;1.55;1.30;;;5.20;54.00;;;;;;5128872;27;34126;-76
2021/12/04 00:21:21;;;;;;;1.27;1.10;;;5.20;54.10;;;;;;5128430;27;34212;-76
2021/12/04 00:23:47;;;;;;;1.20;1.10;;;5.20;54.10;;;;;;5093060;27;34351;-76
2021/12/04 00:26:13;;;;;;;1.30;1.20;;;5.20;54.10;;;;;;5109734;27;35815;-76
2021/12/04 00:28:39;;;;;;;1.00;0.95;;;5.20;54.20;;;;;;5110103;27;34208;-76
2021/12/04 00:31:08;;;;;;;1.30;1.20;;;5.20;54.20;;;;;;5094059;27;34634;-76
2021/12/04 00:33:37;;;;;;;1.10;1.00;;;5.20;54.20;;;;;;5128472;27;34222;-76
2021/12/04 00:36:11;;;;;;;1.20;1.10;;;5.20;54.20;;;;;;5092028;27;36532;-76
2021/12/04 00:49:23;;;;;;;1.30;1.20;;;5.20;54.20;;;;;;5111511;27;34278;-76
2021/12/04 00:51:54;;;;;;;1.45;1.30;;;5.30;54.30;;;;;;5108008;27;34318;-76
2021/12/04 00:54:22;;;;;;;1.25;1.15;;;5.20;54.20;;;;;;5091305;27;34116;-76
2021/12/04 00:56:48;;;;;;;1.30;1.20;;;5.20;54.20;;;;;;5092404;27;35912;-76
2021/12/04 00:59:16;;;;;;;2.38;1.10;;;5.20;54.30;;;;;;5108338;27;34389;-76
2021/12/04 01:01:43;;;;;;;1.10;1.10;;;5.20;54.30;;;;;;5089556;27;34609;-76
2021/12/04 01:04:15;;;;;;;1.20;1.10;;;5.20;54.20;;;;;;5107728;27;34405;-76
2021/12/04 01:06:42;;;;;;;3.08;1.17;;;5.20;54.20;;;;;;5091141;27;36723;-76
2021/12/04 01:09:10;;;;;;;1.10;1.10;;;5.10;54.40;;;;;;5107257;27;34416;-76
2021/12/04 01:11:38;;;;;;;2.13;1.27;;;5.20;54.40;;;;;;5106935;27;34260;-76
2021/12/04 01:14:05;;;;;;;1.45;1.35;;;5.10;54.40;;;;;;5126745;27;34127;-76
2021/12/04 01:16:31;;;;;;;1.45;1.35;;;5.10;54.30;;;;;;5125163;27;35352;-76
2021/12/04 01:18:58;;;;;;;1.52;1.27;;;5.10;54.20;;;;;;5107234;27;34139;-76
2021/12/04 01:21:24;;;;;;;1.63;1.50;;;5.10;54.20;;;;;;5106454;27;34137;-76
2021/12/04 01:23:50;;;;;;;1.35;1.20;;;5.10;54.80;;;;;;5106188;27;34626;-76
2021/12/04 01:26:16;;;;;;;2.00;1.48;;;5.10;54.10;;;;;;5124652;27;34485;-76
2021/12/04 01:28:42;;;;;;;2.03;1.30;;;5.10;54.10;;;;;;5106817;27;34281;-76
2021/12/04 01:31:08;;;;;;;1.08;1.02;;;5.00;54.60;;;;;;5089254;27;34298;-76
2021/12/04 01:33:34;;;;;;;1.30;1.17;;;5.00;54.00;;;;;;5124310;27;34334;-76
2021/12/04 01:36:00;;;;;;;1.10;1.02;;;5.00;53.90;;;;;;5104940;27;35735;-76
2021/12/04 01:38:26;;;;;;;2.47;1.17;;;4.90;53.90;;;;;;5123797;27;34235;-76
2021/12/04 01:40:53;;;;;;;1.38;1.13;;;4.90;53.80;;;;;;5105802;27;34284;-76
2021/12/04 01:43:19;;;;;;;1.10;1.10;;;4.80;53.60;;;;;;5088683;27;34155;-76
2021/12/04 01:45:45;;;;;;;2.13;1.40;;;4.80;53.60;;;;;;5105683;27;34918;-76
2021/12/04 01:48:12;;;;;;;1.38;1.27;;;4.70;53.60;;;;;;5105914;27;34119;-76
2021/12/04 01:50:38;;;;;;;1.33;1.20;;;4.70;53.60;;;;;;5105791;27;34276;-76
2021/12/04 01:53:05;;;;;;;1.40;1.30;;;4.60;53.60;;;;;;5105547;27;34305;-76
2021/12/04 01:55:35;;;;;;;2.28;1.20;;;4.60;53.60;;;;;;5104968;27;35471;-76
2021/12/04 01:58:01;;;;;;;1.70;1.40;;;4.50;53.70;;;;;;5123721;27;34496;-76
2021/12/04 02:00:31;;;;;;;1.52;1.42;;;4.40;53.70;;;;;;5105810;27;34423;-76
2021/12/04 02:02:57;;;;;;;1.42;1.33;;;4.30;53.60;;;;;;5105681;27;34289;-76
2021/12/04 02:05:23;;;;;;;1.55;1.40;;;4.30;53.70;;;;;;5105395;27;35794;-76
2021/12/04 02:07:49;;;;;;;1.52;1.40;;;4.20;53.70;;;;;;5105471;27;34266;-76
2021/12/04 02:10:15;;;;;;;2.22;1.25;;;4.20;53.80;;;;;;5105276;27;34239;-76
2021/12/04 02:12:41;;;;;;;1.60;1.38;;;4.10;53.70;;;;;;5123573;27;34213;-76
2021/12/04 02:15:11;;;;;;;1.73;1.45;;;4.10;53.70;;;;;;5105284;27;34254;-76
2021/12/04 02:17:38;;;;;;;1.35;1.25;;;4.00;53.70;;;;;;5088527;27;34127;-75
2021/12/04 02:20:10;;;;;;;1.58;1.23;;;4.00;53.70;;;;;;5123249;27;34069;-75
2021/12/04 02:22:36;;;;;;;1.17;1.08;;;4.00;53.70;;;;;;5088855;27;34661;-75
2021/12/04 02:25:03;;;;;;;2.63;1.10;;;3.90;53.90;;;;;;5104890;27;35735;-76
2021/12/04 02:27:29;;;;;;;1.45;1.35;;;3.90;53.90;;;;;;5071107;27;34196;-75
2021/12/04 02:29:55;;;;;;;1.35;1.15;;;3.90;53.90;;;;;;5105224;27;34181;-76
2021/12/04 02:32:22;;;;;;;1.30;1.23;;;3.80;53.80;;;;;;5123762;27;34211;-76
2021/12/04 02:34:48;;;;;;;1.35;1.25;;;3.80;53.70;;;;;;5087747;27;36505;-76
2021/12/04 02:37:14;;;;;;;1.50;1.38;;;3.80;53.80;;;;;;5104696;27;34355;-76
2021/12/04 02:39:44;;;;;;;1.55;1.23;;;3.70;53.80;;;;;;5105174;27;34383;-75
2021/12/04 02:42:21;;;;;;;2.33;1.42;;;3.70;53.90;;;;;;5105706;27;34210;-76
2021/12/04 02:44:48;;;;;;;1.40;1.30;;;3.70;53.90;;;;;;5104559;27;35617;-76
2021/12/04 02:47:15;;;;;;;1.50;1.38;;;3.70;53.90;;;;;;5123497;27;34114;-76
2021/12/04 02:49:42;;;;;;;1.70;1.40;;;3.60;54.50;;;;;;5104657;27;34104;-76
2021/12/04 02:52:09;;;;;;;1.60;1.25;;;3.60;53.80;;;;;;5123701;27;34168;-76
2021/12/04 02:54:36;;;;;;;1.55;1.40;;;3.60;53.90;;;;;;5087489;27;35864;-76
2021/12/04 02:57:06;;;;;;;3.83;1.60;;;3.60;53.80;;;;;;5087962;27;34406;-76
2021/12/04 02:59:33;;;;;;;1.70;1.42;;;3.60;53.90;;;;;;5105118;27;34192;-76
2021/12/04 03:02:00;;;;;;;1.40;1.27;;;3.60;54.00;;;;;;5105243;27;34262;-76
2021/12/04 03:04:27;;;;;;;1.30;1.20;;;3.50;53.90;;;;;;5104237;27;36536;-76
2021/12/04 03:06:54;;;;;;;1.90;1.50;;;3.50;54.00;;;;;;5104489;27;34335;-76
2021/12/04 03:09:20;;;;;;;1.58;1.23;;;3.50;54.00;;;;;;5104925;27;34274;-76
2021/12/04 03:11:46;;;;;;;1.95;1.65;;;3.50;54.10;;;;;;5088395;27;34226;-76
2021/12/04 03:14:13;;;;;;;1.38;1.27;;;3.60;54.10;;;;;;5087560;27;35709;-76
2021/12/04 03:16:42;;;;;;;1.38;1.27;;;3.60;54.10;;;;;;5122854;27;34141;-75
2021/12/04 03:19:08;;;;;;;2.15;1.65;;;3.60;54.00;;;;;;5104711;27;34121;-76
2021/12/04 03:21:37;;;;;;;1.55;1.45;;;3.60;54.10;;;;;;5087854;27;34436;-75
2021/12/04 03:24:06;;;;;;;1.67;1.50;;;3.50;54.20;;;;;;5104202;27;35864;-75
2021/12/04 03:26:34;;;;;;;1.67;1.58;;;3.50;54.20;;;;;;5108164;27;34116;-76
2021/12/04 03:29:02;;;;;;;1.63;1.52;;;3.50;54.20;;;;;;5090645;27;34208;-76
2021/12/04 03:31:46;;;;;;;1.98;1.75;;;3.50;54.20;;;;;;5091573;27;34182;-75
2021/12/04 03:42:16;;;;;;;1.55;1.45;;;3.60;54.10;;;;;;5125753;27;34432;-76
2021/12/04 03:44:42;;;;;;;1.63;1.50;;;3.60;54.10;;;;;;5125436;27;35183;-76
2021/12/04 03:47:09;;;;;;;2.15;1.58;;;3.60;54.00;;;;;;5126411;27;34376;-75
2021/12/04 03:49:38;;;;;;;1.80;1.70;;;3.60;54.00;;;;;;5090543;27;34261;-76
2021/12/04 03:52:05;;;;;;;2.63;1.90;;;3.60;54.00;;;;;;5090920;27;34273;-76
2021/12/04 03:54:31;;;;;;;1.77;1.55;;;3.60;54.10;;;;;;5107308;27;36397;-75
2021/12/04 03:57:03;;;;;;;1.75;1.65;;;3.60;54.10;;;;;;5125681;27;34083;-76
2021/12/04 03:59:31;;;;;;;2.10;1.80;;;3.60;54.10;;;;;;5107481;27;34277;-75
2021/12/04 04:01:57;;;;;;;1.77;1.67;;;3.60;54.10;;;;;;5107629;27;34140;-75
2021/12/04 04:04:23;;;;;;;7.53;1.70;;;3.70;54.10;;;;;;5125954;27;34229;-76
2021/12/04 04:06:49;;;;;;;1.77;1.60;;;3.60;54.00;;;;;;5090231;27;34173;-76
2021/12/04 04:09:16;;;;;;;2.08;1.90;;;3.70;54.10;;;;;;5125414;27;34241;-76
2021/12/04 04:11:42;;;;;;;1.98;1.73;;;3.70;54.10;;;;;;5107466;27;34275;-76
2021/12/04 04:14:08;;;;;;;2.00;1.77;;;3.70;54.10;;;;;;5107328;27;36280;-75
2021/12/04 04:16:37;;;;;;;1.92;1.77;;;3.70;54.10;;;;;;5125731;27;34242;-75
2021/12/04 04:19:04;;;;;;;1.98;1.45;;;3.70;54.30;;;;;;5125608;27;34282;-76
2021/12/04 04:21:30;;;;;;;3.47;1.70;;;3.70;54.30;;;;;;5125881;27;34399;-75
2021/12/04 04:23:56;;;;;;;1.58;1.48;;;3.70;54.20;;;;;;5106760;27;35212;-75
2021/12/04 04:26:22;;;;;;;2.42;2.00;;;3.70;54.20;;;;;;5107600;27;34343;-75
2021/12/04 04:28:48;;;;;;;1.92;1.52;;;3.80;54.10;;;;;;5106871;27;34289;-76
2021/12/04 04:31:15;;;;;;;1.92;1.83;;;3.80;54.00;;;;;;5107099;27;34393;-76
2021/12/04 04:33:44;;;;;;;1.95;1.65;;;3.80;54.00;;;;;;5125114;27;34707;-75
2021/12/04 05:00:37;;;;;;;2.67;1.73;;;3.90;54.80;;;;;;5124052;27;34414;-75
2021/12/04 05:11:13;;;;;;;1.88;1.67;;;4.00;54.20;;;;;;5109162;27;34236;-76
2021/12/04 05:13:40;;;;;;;1.73;1.63;;;4.00;54.20;;;;;;5124906;27;34225;-76
2021/12/04 05:16:15;;;;;;;1.92;1.60;;;4.00;54.10;;;;;;5124872;27;34134;-76
2021/12/04 05:18:51;;;;;;;1.30;1.20;;;4.00;54.10;;;;;;5090745;27;34436;-76
2021/12/04 05:21:19;;;;;;;2.70;1.80;;;4.00;54.10;;;;;;5124576;27;34128;-76
2021/12/04 05:23:48;;;;;;;1.55;1.35;;;4.00;54.20;;;;;;5124644;27;34341;-76
2021/12/04 05:26:18;;;;;;;2.13;1.35;;;4.00;54.20;;;;;;5106799;27;34417;-76
2021/12/04 05:28:45;;;;;;;1.60;1.50;;;4.00;54.10;;;;;;5106193;27;34100;-76
2021/12/04 05:31:11;;;;;;;1.50;1.30;;;4.00;54.20;;;;;;5089259;27;34197;-76
2021/12/04 05:33:39;;;;;;;1.80;1.70;;;4.00;54.30;;;;;;5123879;27;34194;-76
2021/12/04 05:36:06;;;;;;;2.35;1.70;;;4.00;54.30;;;;;;5106038;27;35225;-76
2021/12/04 05:38:33;;;;;;;1.63;1.50;;;4.00;54.30;;;;;;5105159;27;34379;-76
2021/12/04 05:40:59;;;;;;;1.92;1.77;;;4.00;54.30;;;;;;5123260;27;34214;-76
2021/12/04 05:43:26;;;;;;;1.75;1.65;;;4.00;54.30;;;;;;5105103;27;34211;-76
2021/12/04 05:46:09;;;;;;;2.65;1.80;;;4.00;54.30;;;;;;5087724;27;35811;-76
2021/12/04 05:48:43;;;;;;;2.80;1.77;;;4.00;54.30;;;;;;5105080;27;34180;-75
2021/12/04 05:53:58;;;;;;;1.98;1.60;;;4.00;54.30;;;;;;5122458;27;34181;-76
2021/12/04 05:56:24;;;;;;;1.63;1.48;;;4.00;54.40;;;;;;5073928;27;36088;-76
2021/12/04 05:58:51;;;;;;;2.25;1.88;;;4.00;54.40;;;;;;5088618;27;34219;-76
2021/12/04 06:01:19;;;;;;;2.50;1.67;;;4.00;54.40;;;;;;5105487;27;34286;-76
2021/12/04 06:03:45;;;;;;;1.73;1.63;;;4.00;54.40;;;;;;5105762;27;34245;-76
2021/12/04 06:06:11;;;;;;;2.88;1.80;;;4.00;54.50;;;;;;5088883;27;36025;-75
2021/12/04 06:08:37;;;;;;;3.10;1.80;;;4.00;54.70;;;;;;5106010;27;34194;-76
2021/12/04 06:11:04;;;;;;;3.08;1.63;;;4.00;54.70;;;;;;5124367;27;34171;-76
2021/12/04 06:13:30;;;;;;;2.80;1.77;;;3.90;54.70;;;;;;5106044;27;34435;-76
2021/12/04 06:15:56;;;;;;;2.40;1.77;;;3.90;54.70;;;;;;5105188;27;36231;-76
2021/12/04 06:18:23;;;;;;;2.10;1.70;;;4.00;54.70;;;;;;5105947;27;34360;-76
2021/12/04 06:23:32;;;;;;;2.47;2.15;;;4.00;54.60;;;;;;5123429;27;34237;-76
2021/12/04 06:25:59;;;;;;;2.38;1.90;;;4.00;54.70;;;;;;5105112;27;35601;-76
2021/12/04 06:28:25;;;;;;;4.13;2.10;;;4.00;54.60;;;;;;5123836;27;34147;-76
2021/12/04 06:30:54;;;;;;;1.92;1.75;;;4.00;54.60;;;;;;5123271;27;34290;-76
2021/12/04 06:33:20;;;;;;;2.58;2.03;;;4.00;54.70;;;;;;5105381;27;34248;-76
2021/12/04 06:35:47;;;;;;;2.90;2.20;;;4.10;54.60;;;;;;5087425;27;35743;-76
2021/12/04 06:38:16;;;;;;;2.60;2.17;;;4.00;54.70;;;;;;5123121;27;34259;-76
2021/12/04 06:40:43;;;;;;;3.42;2.33;;;4.00;54.60;;;;;;5088452;27;34688;-76
2021/12/04 06:43:10;;;;;;;2.20;2.00;;;4.10;54.80;;;;;;5105221;27;34569;-76
2021/12/04 06:45:39;;;;;;;2.08;1.98;;;4.10;54.80;;;;;;5104936;27;36161;-76
2021/12/04 06:48:07;;;;;;;2.03;1.83;;;4.10;54.70;;;;;;5087418;27;34153;-75
2021/12/04 06:50:44;;;;;;;2.65;2.35;;;4.10;54.70;;;;;;5124729;27;33975;-76
2021/12/04 06:53:31;;;;;;;3.90;2.55;;;4.00;54.60;;;;;;5090730;27;34344;-76
2021/12/04 06:56:00;;;;;;;2.97;2.42;;;4.10;54.80;;;;;;5106706;27;34444;-76
2021/12/04 06:58:27;;;;;;;2.33;1.90;;;4.10;54.80;;;;;;5109753;27;34092;-76
2021/12/04 07:00:54;;;;;;;1.88;1.77;;;4.10;54.80;;;;;;5088961;28;34327;-76
2021/12/04 07:03:20;;;;;;;2.95;2.30;;;4.10;54.80;;;;;;5072436;28;34076;-76
2021/12/04 07:05:47;;;;;;;2.85;2.30;;;4.10;54.70;;;;;;5105896;28;35223;-76
2021/12/04 07:08:14;;;;;;;4.93;2.65;;;4.10;54.70;;;;;;5106059;28;34374;-76
2021/12/04 07:10:41;;;;;;;2.33;2.08;;;4.10;54.70;;;;;;5071184;28;34321;-76
2021/12/04 07:13:07;;;;;;;2.63;2.20;;;4.20;54.80;;;;;;5087526;28;34227;-76
2021/12/04 07:15:33;;;;;;;3.22;2.35;;;4.20;54.80;;;;;;5087574;28;36250;-76
2021/12/04 07:18:00;;;;;;;3.20;2.00;;;4.20;54.70;;;;;;5105766;27;34469;-76
2021/12/04 07:20:27;;;;;;;3.08;2.38;;;4.20;54.80;;;;;;5087129;28;34107;-76
2021/12/04 07:22:53;;;;;;;2.53;1.95;;;4.20;54.80;;;;;;5105746;28;34231;-76
2021/12/04 07:25:20;;;;;;;2.45;2.08;;;4.20;54.80;;;;;;5105805;28;35012;-76
2021/12/04 07:27:47;;;;;;;3.67;2.45;;;4.20;54.90;;;;;;5070360;28;34180;-76
2021/12/04 07:30:14;;;;;;;3.72;2.40;;;4.20;54.80;;;;;;5105780;28;34299;-76
2021/12/04 07:32:40;;;;;;;2.67;2.33;;;4.20;54.80;;;;;;5088275;28;34271;-76
2021/12/04 07:35:07;;;;;;;3.72;2.28;;;4.20;54.80;;;;;;5086558;28;36359;-76
2021/12/04 07:37:33;;;;;;;3.13;2.08;;;4.20;54.90;;;;;;5087759;28;34322;-76
2021/12/04 07:39:59;;;;;;;2.67;2.08;;;4.30;54.90;;;;;;5070396;28;34245;-76
2021/12/04 07:42:25;;;;;;;3.78;2.17;;;4.30;55.00;;;;;;5105434;28;34222;-76
2021/12/04 07:44:51;;;;;;;2.97;2.08;;;4.30;55.00;;;;;;5069661;28;35992;-75
2021/12/04 07:47:17;;;;;;;2.97;2.30;;;4.30;55.00;;;;;;5087464;28;34642;-76
2021/12/04 07:49:43;;;;;;;3.65;2.60;;;4.30;55.00;;;;;;5088078;28;34338;-75
2021/12/04 07:52:11;;;;;;;3.60;2.47;;;4.30;55.00;;;;;;5071110;27;34186;-76
2021/12/04 07:54:38;;;;;;;2.30;1.92;;;4.30;55.00;;;;;;5087490;28;36302;-76
2021/12/04 07:57:05;;;;;;;2.50;2.13;;;4.30;55.00;;;;;;5087178;28;34431;-76
2021/12/04 07:59:31;;;;;;;2.78;2.25;;;4.40;55.00;;;;;;5086647;28;34319;-76
2021/12/04 08:01:58;;;;;;;3.50;2.38;;;4.40;55.00;;;;;;5070673;28;34152;-76
2021/12/04 08:04:25;;;;;;;2.78;1.98;;;4.40;54.90;;;;;;5070868;28;36277;-76
2021/12/04 08:06:52;;;;;;;2.60;2.25;;;4.40;55.00;;;;;;5105103;28;34079;-76
2021/12/04 08:09:18;;;;;;;2.00;1.80;;;4.40;55.00;;;;;;5087312;28;34252;-76
2021/12/04 08:11:44;;;;;;;2.75;2.00;;;4.40;55.00;;;;;;5104862;27;34318;-76
2021/12/04 08:14:11;;;;;;;2.08;1.90;;;4.50;55.10;;;;;;5086587;28;35808;-76
2021/12/04 08:16:37;;;;;;;2.72;2.28;;;4.50;55.10;;;;;;5069636;28;34267;-76
2021/12/04 08:19:03;;;;;;;2.30;2.00;;;4.50;55.00;;;;;;5087052;28;34222;-76
2021/12/04 08:21:29;;;;;;;2.53;2.10;;;4.50;54.90;;;;;;5087146;28;34459;-76
2021/12/04 08:23:55;;;;;;;2.33;2.10;;;4.50;55.00;;;;;;5085921;28;36044;-76
2021/12/04 08:26:22;;;;;;;2.70;2.05;;;4.60;55.00;;;;;;5086612;28;34213;-76
2021/12/04 08:28:50;;;;;;;2.28;1.77;;;4.60;55.00;;;;;;5086809;28;34223;-76
2021/12/04 08:31:16;;;;;;;2.17;1.80;;;4.60;54.90;;;;;;5104318;28;34240;-76
2021/12/04 08:33:42;;;;;;;2.63;2.00;;;4.60;55.00;;;;;;5103869;28;34729;-76
2021/12/04 08:36:09;;;;;;;3.00;2.22;;;4.60;55.00;;;;;;5053069;28;34219;-76
2021/12/04 08:38:37;;;;;;;2.67;2.08;;;4.70;55.10;;;;;;5086040;28;34257;-76
2021/12/04 08:41:04;;;;;;;2.22;1.73;;;4.70;55.00;;;;;;5087026;28;34146;-76
2021/12/04 08:43:31;;;;;;;2.17;1.98;;;4.80;55.00;;;;;;5104236;28;34266;-76
2021/12/04 08:46:00;;;;;;;2.10;1.85;;;4.80;54.90;;;;;;5086018;28;34250;-76
2021/12/04 08:48:27;;;;;;;2.25;1.83;;;4.80;54.90;;;;;;5086756;28;34171;-76
2021/12/04 08:50:54;;;;;;;2.90;2.00;;;4.80;54.80;;;;;;5086829;28;34249;-76
2021/12/04 08:53:20;;;;;;;2.67;2.13;;;4.80;54.70;;;;;;5086583;28;34419;-76
2021/12/04 08:55:46;;;;;;;2.25;1.70;;;4.90;54.70;;;;;;5069436;28;34337;-76
2021/12/04 08:58:15;;;;;;;3.22;2.20;;;4.80;54.60;;;;;;5085505;28;35016;-76
2021/12/04 09:00:51;;;;;;;1.92;1.73;;;4.90;54.60;;;;;;5104884;28;34158;-76
2021/12/04 09:03:23;;;;;;;7.50;2.13;;;4.90;54.60;;;;;;5086043;28;35608;-76
2021/12/04 09:05:51;;;;;;;2.63;1.73;;;4.90;54.50;;;;;;5069546;28;34174;-76
2021/12/04 09:08:20;;;;;;;2.55;1.95;;;5.00;54.60;;;;;;5086177;28;34253;-76
2021/12/04 09:10:47;;;;;;;4.30;2.05;;;5.00;54.50;;;;;;5070158;28;34144;-76
2021/12/04 09:13:14;;;;;;;3.63;2.38;;;5.00;54.60;;;;;;5085929;28;36711;-76
2021/12/04 09:15:40;;;;;;;2.63;1.90;;;5.00;54.50;;;;;;5069055;28;34381;-76
2021/12/04 09:18:07;;;;;;;3.50;2.30;;;5.10;54.70;;;;;;5069013;28;34521;-76
2021/12/04 09:20:33;;;;;;;2.60;1.77;;;5.10;54.70;;;;;;5104255;28;34415;-75
2021/12/04 09:23:03;;;;;;;2.92;2.22;;;5.20;54.70;;;;;;5084937;28;35521;-76
2021/12/04 09:25:31;;;;;;;2.22;2.03;;;5.20;54.70;;;;;;5104366;28;34210;-76
2021/12/04 10:03:41;;;;;;;5.22;2.35;;;5.60;54.70;;;;;;5103945;28;34161;-76
2021/12/04 10:12:14;;;;;;;2.92;2.10;;;5.80;54.60;;;;;;5074550;28;34445;-76
2021/12/04 10:14:54;;;;;;;2.75;2.20;;;5.80;54.60;;;;;;5088825;28;34264;-76
2021/12/04 10:20:23;;;;;;;4.03;2.17;;;5.90;54.70;;;;;;5088411;28;34442;-76
2021/12/04 10:33:48;;;;;;;3.38;2.13;;;6.20;54.40;;;;;;5089412;28;34410;-76
2021/12/04 10:36:27;;;;;;;3.00;2.00;;;6.30;54.50;;;;;;5072082;28;34119;-76
2021/12/04 10:38:54;;;;;;;2.50;2.10;;;6.30;54.60;;;;;;5088730;28;36638;-75
2021/12/04 10:41:32;;;;;;;2.47;1.95;;;6.40;54.40;;;;;;5088312;28;34301;-76
2021/12/04 10:44:16;;;;;;;2.85;2.10;;;6.40;54.30;;;;;;5089073;28;34265;-76
2021/12/04 10:47:05;;;;;;;2.40;1.88;;;6.40;54.00;;;;;;5106818;28;34261;-76
2021/12/04 10:49:54;;;;;;;3.22;1.73;;;6.40;54.40;;;;;;5071856;28;36486;-76
2021/12/04 10:52:51;;;;;;;2.88;2.13;;;6.50;54.30;;;;;;5073689;28;34073;-76
2021/12/04 10:55:34;;;;;;;3.35;2.25;;;6.50;54.30;;;;;;5088076;28;34224;-76
2021/12/04 10:58:26;;;;;;;3.15;2.13;;;6.50;54.50;;;;;;5090939;28;34142;-76
2021/12/04 11:06:44;;;;;;;2.85;1.90;;;6.50;54.40;;;;;;5106128;28;34321;-76
2021/12/04 11:21:07;;;;;;;2.15;1.95;;;6.50;54.40;;;;;;5106666;28;34323;-76
2021/12/04 11:37:01;;;;;;;2.20;1.80;;;6.40;54.60;;;;;;5106352;28;34146;-76
2021/12/04 11:39:41;;;;;;;2.78;1.90;;;6.40;54.60;;;;;;5091295;28;34396;-77
2021/12/04 11:42:22;;;;;;;2.38;1.70;;;6.40;54.70;;;;;;5088146;28;33894;-77
2021/12/04 11:44:56;;;;;;;2.33;1.88;;;6.30;54.70;;;;;;5104972;27;34335;-77
2021/12/04 11:47:22;;;;;;;2.17;1.85;;;6.40;54.80;;;;;;5088867;28;34190;-76
2021/12/04 11:52:45;;;;;;;2.72;1.92;;;6.30;55.00;;;;;;5106342;28;34340;-76
2021/12/04 11:55:11;;;;;;;3.22;2.28;;;6.30;54.90;;;;;;5071286;28;36333;-76
2021/12/04 11:57:38;;;;;;;2.08;1.80;;;6.30;55.00;;;;;;5087397;28;34277;-76
2021/12/04 12:00:17;;;;;;;2.10;1.70;;;6.30;54.90;;;;;;5089409;28;34508;-76
2021/12/04 12:02:44;;;;;;;2.65;1.92;;;6.40;55.00;;;;;;5107380;28;34091;-77
2021/12/04 12:05:17;;;;;;;2.88;2.13;;;6.30;54.80;;;;;;5087608;28;35862;-77
2021/12/04 12:07:54;;;;;;;2.65;1.88;;;6.40;55.10;;;;;;5053839;28;34147;-76
2021/12/04 12:10:22;;;;;;;2.83;2.13;;;6.50;55.20;;;;;;5070183;28;34308;-76
2021/12/04 12:12:51;;;;;;;3.10;1.70;;;6.50;55.30;;;;;;5070833;28;34144;-76
2021/12/04 12:15:30;;;;;;;2.10;1.80;;;6.60;55.00;;;;;;5087604;28;35587;-76
2021/12/04 12:18:08;;;;;;;3.78;2.30;;;6.70;54.80;;;;;;5088173;28;34215;-76
2021/12/04 12:20:40;;;;;;;2.70;1.90;;;6.70;54.50;;;;;;5057640;28;34112;-76
2021/12/04 12:23:09;;;;;;;2.40;1.90;;;6.80;54.70;;;;;;5106966;28;34148;-76
2021/12/04 12:26:02;;;;;;;2.67;1.98;;;6.80;54.80;;;;;;5088394;28;35810;-76
2021/12/04 12:36:02;;;;;;;1.85;1.58;;;7.00;54.40;;;;;;5111411;27;34344;-76
2021/12/04 12:37:23;;;;;;;1.92;1.58;;;7.10;54.20;;;;;;5111311;27;35720;-77
2021/12/04 12:39:53;;;;;;;2.05;1.70;;;7.10;54.30;;;;;;5108829;27;34232;-76
2021/12/04 12:42:27;;;;;;;1.42;1.33;;;7.10;54.50;;;;;;5107632;27;34102;-76
2021/12/04 12:44:53;;;;;;;1.10;1.00;;;7.20;54.40;;;;;;5107306;27;34336;-76
2021/12/04 12:47:21;;;;;;;1.65;1.40;;;7.20;54.50;;;;;;5107012;27;35642;-77
2021/12/04 12:49:48;;;;;;;1.58;1.38;;;7.10;54.40;;;;;;5108020;27;34301;-76
2021/12/04 12:52:26;;;;;;;1.25;1.15;;;7.20;54.50;;;;;;5089557;27;34069;-76
2021/12/04 12:55:00;;;;;;;3.72;1.30;;;7.20;54.50;;;;;;5106791;27;34617;-75
2021/12/04 12:57:30;;;;;;;1.40;1.30;;;7.20;54.50;;;;;;5106446;27;35857;-76
2021/12/04 13:14:20;;;;;;;1.92;1.33;;;7.20;54.70;;;;;;5126009;27;34094;-76
2021/12/04 13:16:50;;;;;;;1.20;1.10;;;7.20;54.90;;;;;;5092034;27;34415;-76
2021/12/04 13:19:19;;;;;;;1.55;1.27;;;7.10;54.90;;;;;;5125785;27;34112;-76
2021/12/04 13:21:49;;;;;;;1.23;1.13;;;7.10;54.80;;;;;;5126778;27;34141;-76
2021/12/04 13:24:17;;;;;;;1.77;1.23;;;7.10;54.90;;;;;;5090324;27;34187;-76
2021/12/04 13:26:47;;;;;;;1.63;1.52;;;7.10;54.90;;;;;;5106467;27;34397;-77
2021/12/04 13:29:16;;;;;;;3.83;1.58;;;7.00;54.90;;;;;;5105645;27;36322;-77
2021/12/04 13:31:43;;;;;;;2.35;1.65;;;7.00;55.00;;;;;;5106582;27;34180;-76
2021/12/04 13:34:12;;;;;;;1.77;1.58;;;7.00;55.00;;;;;;5124985;27;34184;-76
2021/12/04 13:36:39;;;;;;;2.50;1.73;;;7.00;55.00;;;;;;5072702;27;34182;-76
2021/12/04 13:39:10;;;;;;;3.53;2.30;;;7.00;55.00;;;;;;5106497;27;36595;-76
2021/12/04 13:41:38;;;;;;;1.60;1.50;;;7.10;55.10;;;;;;5126300;27;34107;-76
2021/12/04 13:44:07;;;;;;;1.40;1.30;;;7.10;55.20;;;;;;5099858;28;34080;-76
2021/12/04 13:46:51;;;;;;;3.88;1.40;;;7.10;55.20;;;;;;5087006;28;34033;-76
2021/12/04 13:49:21;;;;;;;1.73;1.50;;;7.10;55.30;;;;;;5086457;28;36008;-76
2021/12/04 13:51:57;;;;;;;2.13;1.70;;;7.10;55.20;;;;;;5101475;27;34336;-76
2021/12/04 13:54:26;;;;;;;4.30;1.83;;;7.10;55.30;;;;;;5105007;28;34102;-76
2021/12/04 13:56:52;;;;;;;2.78;1.85;;;7.10;55.30;;;;;;5070062;28;34534;-77
2021/12/04 13:59:27;;;;;;;2.53;2.20;;;7.10;55.40;;;;;;5087312;28;36762;-76
2021/12/04 14:01:55;;;;;;;2.47;1.98;;;7.10;55.50;;;;;;5100935;27;34278;-76
2021/12/04 14:04:21;;;;;;;2.10;1.80;;;7.10;55.50;;;;;;5106100;27;34297;-76
2021/12/04 14:06:54;;;;;;;3.67;2.40;;;7.00;55.50;;;;;;5106683;27;34340;-76
2021/12/04 14:09:23;;;;;;;3.42;2.58;;;7.10;55.70;;;;;;5124279;27;34332;-76
2021/12/04 14:11:51;;;;;;;4.35;2.72;;;7.10;55.70;;;;;;5105629;27;34473;-76
2021/12/04 14:14:23;;;;;;;6.07;2.72;;;7.10;55.60;;;;;;5106400;27;34474;-77
2021/12/04 14:16:51;;;;;;;3.58;2.03;;;7.10;55.60;;;;;;5086225;27;34404;-76
2021/12/04 14:19:22;;;;;;;3.15;2.00;;;7.20;55.60;;;;;;5085031;28;35685;-77
2021/12/04 14:21:54;;;;;;;1.77;1.45;;;7.20;55.50;;;;;;5086858;28;34302;-77
2021/12/04 14:24:27;;;;;;;1.50;1.30;;;7.30;55.50;;;;;;5103288;27;34251;-77
2021/12/04 14:26:55;;;;;;;1.73;1.38;;;7.20;55.40;;;;;;5078694;27;34460;-76
2021/12/04 14:29:21;;;;;;;1.90;1.70;;;7.30;55.40;;;;;;5124058;27;34477;-76
2021/12/04 14:31:48;;;;;;;2.55;1.67;;;7.30;55.50;;;;;;5124324;27;34125;-77
2021/12/04 14:34:24;;;;;;;1.80;1.50;;;7.30;55.50;;;;;;5123849;27;34104;-76
2021/12/04 14:37:11;;;;;;;1.88;1.27;;;7.30;55.70;;;;;;5106701;27;34476;-76
2021/12/04 14:39:39;;;;;;;1.10;1.00;;;7.30;56.00;;;;;;5105818;27;35551;-76
2021/12/04 14:42:22;;;;;;;0.40;0.40;;;7.30;55.80;;;;;;5088969;27;34233;-76
2021/12/04 14:44:52;;;;;;;0.52;0.50;;;7.40;55.70;;;;;;5090946;27;34137;-76
2021/12/04 14:47:19;;;;;;;0.40;0.40;;;7.40;55.60;;;;;;5107329;27;34617;-77
2021/12/04 14:49:47;;;;;;;0.30;0.30;;;7.40;55.20;;;;;;5073701;27;35554;-77
2021/12/04 14:52:19;;;;;;;0.30;0.30;;;7.50;55.20;;;;;;5091206;27;34119;-77
2021/12/04 14:54:46;;;;;;;0.30;0.30;;;7.50;55.00;;;;;;5107624;27;34103;-77
2021/12/04 14:57:14;;;;;;;0.43;0.43;;;7.50;55.10;;;;;;5107719;27;34104;-77
2021/12/04 14:59:41;;;;;;;0.40;0.40;;;7.50;55.10;;;;;;5108291;27;35758;-77
2021/12/04 15:02:17;;;;;;;0.40;0.40;;;7.50;55.00;;;;;;5105516;27;34233;-77
2021/12/04 15:04:44;;;;;;;0.38;0.38;;;7.50;55.00;;;;;;5088850;27;34369;-77
2021/12/04 15:07:27;;;;;;;0.30;0.30;;;7.50;55.00;;;;;;5089666;27;34015;-77
2021/12/04 15:09:54;;;;;;;0.50;0.50;;;7.50;54.50;;;;;;5123801;27;35300;-77
2021/12/04 15:12:33;;;;;;;0.50;0.50;;;7.50;54.40;;;;;;5124494;27;34249;-77
2021/12/04 15:15:04;;;;;;;0.30;0.30;;;7.50;54.60;;;;;;5106059;27;34264;-77
2021/12/04 15:17:33;;;;;;;0.30;0.30;;;7.50;54.40;;;;;;5074041;27;34444;-77
2021/12/04 15:20:03;;;;;;;0.40;0.40;;;7.50;54.70;;;;;;5089716;27;36360;-77
2021/12/04 15:22:34;;;;;;;0.40;0.40;;;7.40;54.50;;;;;;5111192;27;34592;-77
2021/12/04 15:25:03;;;;;;;0.40;0.40;;;7.50;54.70;;;;;;5095323;27;34248;-77
2021/12/04 15:27:30;;;;;;;0.52;0.52;;;7.40;54.40;;;;;;5128962;27;34373;-77
2021/12/04 15:29:57;;;;;;;0.30;0.30;;;7.40;54.40;;;;;;5110067;27;36672;-77
2021/12/04 15:32:26;;;;;;;0.40;0.40;;;7.40;54.20;;;;;;5110148;27;34363;-77
2021/12/04 15:35:02;;;;;;;0.40;0.40;;;7.30;54.30;;;;;;5093519;27;34278;-77
2021/12/04 15:37:37;;;;;;;0.50;0.40;;;7.30;54.50;;;;;;5109193;27;34521;-77
2021/12/04 15:40:07;;;;;;;0.50;0.50;;;7.40;54.40;;;;;;5094356;27;35686;-77
2021/12/04 15:43:02;;;;;;;0.50;0.50;;;7.30;54.40;;;;;;5093416;27;34270;-78
2021/12/04 15:45:32;;;;;;;0.55;0.55;;;7.40;54.40;;;;;;5109439;27;34347;-77
2021/12/04 15:48:32;;;;;;;0.43;0.43;;;7.30;54.40;;;;;;5128710;27;34275;-77
2021/12/04 15:51:17;;;;;;;0.50;0.50;;;7.30;54.10;;;;;;5100038;27;34195;-77
2021/12/04 15:53:51;;;;;;;0.55;0.55;;;7.30;54.20;;;;;;5100263;27;34411;-77
2021/12/04 15:56:31;;;;;;;0.70;0.70;;;7.20;53.90;;;;;;5093207;27;34240;-77